sensor_id;sensor_type;location;lat;lon;timestamp;pressure;altitude;pressure_sealevel;temperature;humidity
74790;BME280;63318;52.406;13.416;2023-11-21T00:01:17;100468.17;;;8.42;93.08
74790;BME280;63318;52.406;13.416;2023-11-21T00:03:46;100468.11;;;8.42;93.15
74790;BME280;63318;52.406;13.416;2023-11-21T00:06:14;100470.23;;;8.43;93.15
74790;BME280;63318;52.406;13.416;2023-11-21T00:08:42;100472.40;;;8.43;93.12
74790;BME280;63318;52.406;13.416;2023-11-21T00:11:10;100474.01;;;8.43;93.17
74790;BME280;63318;52.406;13.416;2023-11-21T00:13:39;100475.56;;;8.44;93.02
74790;BME280;63318;52.406;13.416;2023-11-21T00:16:08;100477.10;;;8.43;93.02
74790;BME280;63318;52.406;13.416;2023-11-21T00:18:36;100479.91;;;8.44;93.13
74790;BME280;63318;52.406;13.416;2023-11-21T00:21:05;100485.46;;;8.44;93.17
74790;BME280;63318;52.406;13.416;2023-11-21T00:23:33;100486.25;;;8.45;93.19
74790;BME280;63318;52.406;13.416;2023-11-21T00:26:02;100489.67;;;8.45;93.24
74790;BME280;63318;52.406;13.416;2023-11-21T00:28:30;100490.23;;;8.45;93.09
74790;BME280;63318;52.406;13.416;2023-11-21T00:30:58;100490.79;;;8.45;93.10
74790;BME280;63318;52.406;13.416;2023-11-21T00:33:26;100492.66;;;8.44;92.82
74790;BME280;63318;52.406;13.416;2023-11-21T00:35:55;100495.25;;;8.42;92.79
74790;BME280;63318;52.406;13.416;2023-11-21T00:38:23;100499.48;;;8.37;92.78
74790;BME280;63318;52.406;13.416;2023-11-21T00:40:51;100502.33;;;8.34;92.53
74790;BME280;63318;52.406;13.416;2023-11-21T00:43:19;100504.69;;;8.30;92.55
74790;BME280;63318;52.406;13.416;2023-11-21T00:45:48;100507.40;;;8.25;92.39
74790;BME280;63318;52.406;13.416;2023-11-21T00:48:16;100513.48;;;8.20;92.33
74790;BME280;63318;52.406;13.416;2023-11-21T00:50:44;100512.40;;;8.16;92.34
74790;BME280;63318;52.406;13.416;2023-11-21T00:53:13;100518.55;;;8.11;92.16
74790;BME280;63318;52.406;13.416;2023-11-21T00:55:41;100519.32;;;8.04;92.41
74790;BME280;63318;52.406;13.416;2023-11-21T00:58:09;100522.59;;;7.99;92.27
74790;BME280;63318;52.406;13.416;2023-11-21T01:00:38;100527.34;;;7.92;92.18
74790;BME280;63318;52.406;13.416;2023-11-21T01:03:06;100532.81;;;7.86;92.24
74790;BME280;63318;52.406;13.416;2023-11-21T01:05:34;100535.13;;;7.80;92.19
74790;BME280;63318;52.406;13.416;2023-11-21T01:08:03;100538.67;;;7.75;92.11
74790;BME280;63318;52.406;13.416;2023-11-21T01:10:31;100538.98;;;7.68;91.98
74790;BME280;63318;52.406;13.416;2023-11-21T01:12:59;100544.58;;;7.63;92.33
74790;BME280;63318;52.406;13.416;2023-11-21T01:15:27;100551.93;;;7.58;92.20
74790;BME280;63318;52.406;13.416;2023-11-21T01:17:56;100557.69;;;7.55;92.22
74790;BME280;63318;52.406;13.416;2023-11-21T01:20:24;100561.35;;;7.51;92.17
74790;BME280;63318;52.406;13.416;2023-11-21T01:22:52;100565.72;;;7.46;92.10
74790;BME280;63318;52.406;13.416;2023-11-21T01:25:21;100564.95;;;7.41;91.92
74790;BME280;63318;52.406;13.416;2023-11-21T01:27:49;100565.75;;;7.37;91.82
74790;BME280;63318;52.406;13.416;2023-11-21T01:30:17;100570.70;;;7.34;91.93
74790;BME280;63318;52.406;13.416;2023-11-21T01:32:46;100570.69;;;7.28;91.75
74790;BME280;63318;52.406;13.416;2023-11-21T01:35:14;100571.67;;;7.25;91.95
74790;BME280;63318;52.406;13.416;2023-11-21T01:37:42;100571.42;;;7.22;92.07
74790;BME280;63318;52.406;13.416;2023-11-21T01:40:12;100573.70;;;7.17;91.78
74790;BME280;63318;52.406;13.416;2023-11-21T01:42:40;100574.69;;;7.14;91.77
74790;BME280;63318;52.406;13.416;2023-11-21T01:45:10;100579.90;;;7.11;91.94
74790;BME280;63318;52.406;13.416;2023-11-21T01:47:39;100585.38;;;7.08;91.76
74790;BME280;63318;52.406;13.416;2023-11-21T01:50:11;100585.77;;;7.05;91.68
74790;BME280;63318;52.406;13.416;2023-11-21T01:52:41;100591.16;;;7.02;91.68
74790;BME280;63318;52.406;13.416;2023-11-21T01:55:12;100593.16;;;6.99;91.74
74790;BME280;63318;52.406;13.416;2023-11-21T01:57:42;100595.40;;;6.94;91.38
74790;BME280;63318;52.406;13.416;2023-11-21T02:00:12;100595.80;;;6.86;91.51
74790;BME280;63318;52.406;13.416;2023-11-21T02:02:40;100601.34;;;6.81;91.39
74790;BME280;63318;52.406;13.416;2023-11-21T02:05:09;100605.20;;;6.77;91.55
74790;BME280;63318;52.406;13.416;2023-11-21T02:07:37;100607.05;;;6.73;91.59
74790;BME280;63318;52.406;13.416;2023-11-21T02:10:07;100609.80;;;6.71;91.59
74790;BME280;63318;52.406;13.416;2023-11-21T02:12:35;100608.89;;;6.70;91.76
74790;BME280;63318;52.406;13.416;2023-11-21T02:15:05;100612.13;;;6.68;91.56
74790;BME280;63318;52.406;13.416;2023-11-21T02:17:34;100612.90;;;6.65;91.65
74790;BME280;63318;52.406;13.416;2023-11-21T02:20:04;100614.71;;;6.61;91.49
74790;BME280;63318;52.406;13.416;2023-11-21T02:22:35;100618.61;;;6.60;91.78
74790;BME280;63318;52.406;13.416;2023-11-21T02:25:06;100620.96;;;6.58;91.74
74790;BME280;63318;52.406;13.416;2023-11-21T02:27:35;100623.30;;;6.56;91.55
74790;BME280;63318;52.406;13.416;2023-11-21T02:30:03;100624.55;;;6.52;91.50
74790;BME280;63318;52.406;13.416;2023-11-21T02:32:32;100625.85;;;6.50;91.80
74790;BME280;63318;52.406;13.416;2023-11-21T02:35:00;100629.11;;;6.48;91.30
74790;BME280;63318;52.406;13.416;2023-11-21T02:37:29;100628.27;;;6.46;91.47
74790;BME280;63318;52.406;13.416;2023-11-21T02:39:57;100632.88;;;6.45;91.69
74790;BME280;63318;52.406;13.416;2023-11-21T02:42:25;100634.79;;;6.44;91.79
74790;BME280;63318;52.406;13.416;2023-11-21T02:44:54;100637.02;;;6.42;91.75
74790;BME280;63318;52.406;13.416;2023-11-21T02:47:22;100640.07;;;6.43;91.78
74790;BME280;63318;52.406;13.416;2023-11-21T02:49:51;100637.53;;;6.43;91.76
74790;BME280;63318;52.406;13.416;2023-11-21T02:52:19;100639.06;;;6.42;91.61
74790;BME280;63318;52.406;13.416;2023-11-21T02:54:47;100644.56;;;6.41;91.75
74790;BME280;63318;52.406;13.416;2023-11-21T02:57:15;100646.19;;;6.39;91.59
74790;BME280;63318;52.406;13.416;2023-11-21T02:59:43;100644.88;;;6.37;91.68
74790;BME280;63318;52.406;13.416;2023-11-21T03:02:12;100640.55;;;6.35;91.71
74790;BME280;63318;52.406;13.416;2023-11-21T03:04:40;100643.30;;;6.35;91.54
74790;BME280;63318;52.406;13.416;2023-11-21T03:07:09;100642.47;;;6.32;91.67
74790;BME280;63318;52.406;13.416;2023-11-21T03:09:38;100647.06;;;6.29;91.53
74790;BME280;63318;52.406;13.416;2023-11-21T03:12:09;100650.06;;;6.27;91.64
74790;BME280;63318;52.406;13.416;2023-11-21T03:14:38;100653.52;;;6.26;91.57
74790;BME280;63318;52.406;13.416;2023-11-21T03:17:06;100654.36;;;6.24;91.54
74790;BME280;63318;52.406;13.416;2023-11-21T03:19:35;100655.70;;;6.21;91.50
74790;BME280;63318;52.406;13.416;2023-11-21T03:22:03;100657.23;;;6.19;91.48
74790;BME280;63318;52.406;13.416;2023-11-21T03:24:31;100659.86;;;6.17;91.53
74790;BME280;63318;52.406;13.416;2023-11-21T03:27:00;100670.19;;;6.15;91.47
74790;BME280;63318;52.406;13.416;2023-11-21T03:29:28;100673.96;;;6.11;91.38
74790;BME280;63318;52.406;13.416;2023-11-21T03:31:56;100678.70;;;6.08;91.23
74790;BME280;63318;52.406;13.416;2023-11-21T03:34:27;100679.73;;;6.04;91.18
74790;BME280;63318;52.406;13.416;2023-11-21T03:36:55;100685.10;;;5.99;91.08
74790;BME280;63318;52.406;13.416;2023-11-21T03:39:24;100689.16;;;5.96;90.99
74790;BME280;63318;52.406;13.416;2023-11-21T03:41:52;100689.16;;;5.93;91.20
74790;BME280;63318;52.406;13.416;2023-11-21T03:44:20;100688.14;;;5.92;91.12
74790;BME280;63318;52.406;13.416;2023-11-21T03:46:49;100694.45;;;5.90;91.25
74790;BME280;63318;52.406;13.416;2023-11-21T03:49:17;100694.59;;;5.89;91.10
74790;BME280;63318;52.406;13.416;2023-11-21T03:51:46;100699.05;;;5.89;91.19
74790;BME280;63318;52.406;13.416;2023-11-21T03:54:14;100703.52;;;5.89;91.39
74790;BME280;63318;52.406;13.416;2023-11-21T03:56:42;100709.22;;;5.87;91.25
74790;BME280;63318;52.406;13.416;2023-11-21T03:59:10;100712.65;;;5.86;91.29
74790;BME280;63318;52.406;13.416;2023-11-21T04:01:39;100711.58;;;5.84;91.33
74790;BME280;63318;52.406;13.416;2023-11-21T04:04:07;100718.74;;;5.83;91.14
74790;BME280;63318;52.406;13.416;2023-11-21T04:06:35;100717.50;;;5.81;91.24
74790;BME280;63318;52.406;13.416;2023-11-21T04:09:04;100722.30;;;5.81;91.41
74790;BME280;63318;52.406;13.416;2023-11-21T04:11:32;100722.10;;;5.79;91.23
74790;BME280;63318;52.406;13.416;2023-11-21T04:14:00;100723.46;;;5.77;91.13
74790;BME280;63318;52.406;13.416;2023-11-21T04:16:28;100720.38;;;5.74;91.01
74790;BME280;63318;52.406;13.416;2023-11-21T04:18:57;100721.94;;;5.72;91.07
74790;BME280;63318;52.406;13.416;2023-11-21T04:21:25;100721.35;;;5.70;90.90
74790;BME280;63318;52.406;13.416;2023-11-21T04:23:53;100731.86;;;5.70;91.20
74790;BME280;63318;52.406;13.416;2023-11-21T04:26:21;100736.80;;;5.69;91.12
74790;BME280;63318;52.406;13.416;2023-11-21T04:28:50;100740.36;;;5.68;91.07
74790;BME280;63318;52.406;13.416;2023-11-21T04:31:18;100741.05;;;5.64;90.91
74790;BME280;63318;52.406;13.416;2023-11-21T04:33:46;100750.11;;;5.62;90.90
74790;BME280;63318;52.406;13.416;2023-11-21T04:36:14;100753.97;;;5.60;90.83
74790;BME280;63318;52.406;13.416;2023-11-21T04:38:42;100761.33;;;5.59;90.71
74790;BME280;63318;52.406;13.416;2023-11-21T04:41:11;100764.52;;;5.56;90.76
74790;BME280;63318;52.406;13.416;2023-11-21T04:43:39;100761.64;;;5.53;90.76
74790;BME280;63318;52.406;13.416;2023-11-21T04:46:07;100764.55;;;5.53;90.70
74790;BME280;63318;52.406;13.416;2023-11-21T04:48:36;100762.29;;;5.53;90.93
74790;BME280;63318;52.406;13.416;2023-11-21T04:51:04;100763.70;;;5.52;90.76
74790;BME280;63318;52.406;13.416;2023-11-21T04:53:33;100764.70;;;5.52;90.74
74790;BME280;63318;52.406;13.416;2023-11-21T04:56:01;100768.86;;;5.51;90.86
74790;BME280;63318;52.406;13.416;2023-11-21T04:58:29;100770.48;;;5.50;90.88
74790;BME280;63318;52.406;13.416;2023-11-21T05:00:58;100773.94;;;5.49;90.79
74790;BME280;63318;52.406;13.416;2023-11-21T05:03:27;100778.56;;;5.46;90.46
74790;BME280;63318;52.406;13.416;2023-11-21T05:05:55;100779.21;;;5.44;90.49
74790;BME280;63318;52.406;13.416;2023-11-21T05:08:23;100783.20;;;5.40;90.39
74790;BME280;63318;52.406;13.416;2023-11-21T05:10:51;100788.39;;;5.38;90.41
74790;BME280;63318;52.406;13.416;2023-11-21T05:13:20;100793.86;;;5.37;90.33
74790;BME280;63318;52.406;13.416;2023-11-21T05:15:48;100799.33;;;5.37;90.44
74790;BME280;63318;52.406;13.416;2023-11-21T05:18:17;100801.73;;;5.36;90.36
74790;BME280;63318;52.406;13.416;2023-11-21T05:20:45;100804.06;;;5.35;90.36
74790;BME280;63318;52.406;13.416;2023-11-21T05:23:14;100803.59;;;5.34;90.50
74790;BME280;63318;52.406;13.416;2023-11-21T05:25:42;100807.87;;;5.31;90.44
74790;BME280;63318;52.406;13.416;2023-11-21T05:28:10;100809.27;;;5.29;90.20
74790;BME280;63318;52.406;13.416;2023-11-21T05:30:38;100811.27;;;5.28;90.39
74790;BME280;63318;52.406;13.416;2023-11-21T05:33:07;100810.67;;;5.26;90.17
74790;BME280;63318;52.406;13.416;2023-11-21T05:35:35;100812.77;;;5.24;90.13
74790;BME280;63318;52.406;13.416;2023-11-21T05:38:03;100818.73;;;5.22;90.07
74790;BME280;63318;52.406;13.416;2023-11-21T05:40:31;100822.33;;;5.21;90.12
74790;BME280;63318;52.406;13.416;2023-11-21T05:43:00;100825.61;;;5.20;90.03
74790;BME280;63318;52.406;13.416;2023-11-21T05:45:28;100830.15;;;5.19;89.99
74790;BME280;63318;52.406;13.416;2023-11-21T05:47:57;100833.65;;;5.18;90.02
74790;BME280;63318;52.406;13.416;2023-11-21T05:50:26;100836.98;;;5.16;89.85
74790;BME280;63318;52.406;13.416;2023-11-21T05:52:54;100840.34;;;5.15;90.02
74790;BME280;63318;52.406;13.416;2023-11-21T05:55:23;100843.87;;;5.14;90.00
74790;BME280;63318;52.406;13.416;2023-11-21T05:57:52;100848.48;;;5.14;90.04
74790;BME280;63318;52.406;13.416;2023-11-21T06:00:21;100856.06;;;5.15;90.10
74790;BME280;63318;52.406;13.416;2023-11-21T06:02:50;100860.86;;;5.16;90.18
74790;BME280;63318;52.406;13.416;2023-11-21T06:05:19;100863.02;;;5.14;89.88
74790;BME280;63318;52.406;13.416;2023-11-21T06:07:48;100863.46;;;5.12;89.88
74790;BME280;63318;52.406;13.416;2023-11-21T06:10:16;100867.06;;;5.11;89.89
74790;BME280;63318;52.406;13.416;2023-11-21T06:12:45;100870.19;;;5.10;89.81
74790;BME280;63318;52.406;13.416;2023-11-21T06:15:13;100873.89;;;5.10;89.85
74790;BME280;63318;52.406;13.416;2023-11-21T06:17:42;100875.41;;;5.10;89.80
74790;BME280;63318;52.406;13.416;2023-11-21T06:20:12;100881.55;;;5.09;89.79
74790;BME280;63318;52.406;13.416;2023-11-21T06:22:41;100884.58;;;5.09;89.72
74790;BME280;63318;52.406;13.416;2023-11-21T06:25:10;100890.14;;;5.07;89.50
74790;BME280;63318;52.406;13.416;2023-11-21T06:27:41;100895.89;;;5.06;89.47
74790;BME280;63318;52.406;13.416;2023-11-21T06:30:10;100899.63;;;5.04;89.40
74790;BME280;63318;52.406;13.416;2023-11-21T06:32:40;100898.27;;;5.02;89.30
74790;BME280;63318;52.406;13.416;2023-11-21T06:35:09;100902.95;;;5.03;89.54
74790;BME280;63318;52.406;13.416;2023-11-21T06:37:37;100905.67;;;5.03;89.65
74790;BME280;63318;52.406;13.416;2023-11-21T06:40:08;100911.13;;;5.03;89.60
74790;BME280;63318;52.406;13.416;2023-11-21T06:42:36;100916.23;;;5.03;89.66
74790;BME280;63318;52.406;13.416;2023-11-21T06:45:06;100919.05;;;5.03;89.65
74790;BME280;63318;52.406;13.416;2023-11-21T06:47:35;100924.90;;;5.03;89.59
74790;BME280;63318;52.406;13.416;2023-11-21T06:50:04;100929.05;;;5.03;89.52
74790;BME280;63318;52.406;13.416;2023-11-21T06:52:32;100933.17;;;5.02;89.53
74790;BME280;63318;52.406;13.416;2023-11-21T06:55:00;100928.91;;;5.01;89.60
74790;BME280;63318;52.406;13.416;2023-11-21T06:57:29;100929.93;;;5.00;89.60
74790;BME280;63318;52.406;13.416;2023-11-21T06:59:57;100934.20;;;4.98;89.53
74790;BME280;63318;52.406;13.416;2023-11-21T07:02:25;100937.74;;;4.96;89.57
74790;BME280;63318;52.406;13.416;2023-11-21T07:04:54;100940.46;;;4.95;89.43
74790;BME280;63318;52.406;13.416;2023-11-21T07:07:22;100943.14;;;4.94;89.54
74790;BME280;63318;52.406;13.416;2023-11-21T07:09:50;100945.79;;;4.94;89.48
74790;BME280;63318;52.406;13.416;2023-11-21T07:12:18;100943.41;;;4.92;89.31
74790;BME280;63318;52.406;13.416;2023-11-21T07:14:47;100946.89;;;4.92;89.47
74790;BME280;63318;52.406;13.416;2023-11-21T07:17:16;100947.70;;;4.92;89.69
74790;BME280;63318;52.406;13.416;2023-11-21T07:19:44;100950.93;;;4.91;89.48
74790;BME280;63318;52.406;13.416;2023-11-21T07:22:12;100952.75;;;4.91;89.54
74790;BME280;63318;52.406;13.416;2023-11-21T07:24:42;100954.95;;;4.91;89.59
74790;BME280;63318;52.406;13.416;2023-11-21T07:27:11;100961.15;;;4.90;89.42
74790;BME280;63318;52.406;13.416;2023-11-21T07:29:39;100966.86;;;4.90;89.44
74790;BME280;63318;52.406;13.416;2023-11-21T07:32:08;100966.58;;;4.90;89.37
74790;BME280;63318;52.406;13.416;2023-11-21T07:34:36;100967.02;;;4.89;89.35
74790;BME280;63318;52.406;13.416;2023-11-21T07:37:05;100968.66;;;4.89;89.35
74790;BME280;63318;52.406;13.416;2023-11-21T07:39:33;100968.41;;;4.89;89.51
74790;BME280;63318;52.406;13.416;2023-11-21T07:42:02;100970.95;;;4.89;89.35
74790;BME280;63318;52.406;13.416;2023-11-21T07:44:31;100972.66;;;4.87;89.25
74790;BME280;63318;52.406;13.416;2023-11-21T07:46:59;100977.64;;;4.86;89.27
74790;BME280;63318;52.406;13.416;2023-11-21T07:49:27;100978.69;;;4.86;89.34
74790;BME280;63318;52.406;13.416;2023-11-21T07:51:56;100977.57;;;4.85;89.25
74790;BME280;63318;52.406;13.416;2023-11-21T07:54:24;100979.77;;;4.85;89.23
74790;BME280;63318;52.406;13.416;2023-11-21T07:56:52;100981.52;;;4.85;89.10
74790;BME280;63318;52.406;13.416;2023-11-21T07:59:23;100983.95;;;4.85;89.23
74790;BME280;63318;52.406;13.416;2023-11-21T08:01:52;100990.41;;;4.84;89.16
74790;BME280;63318;52.406;13.416;2023-11-21T08:04:20;100990.29;;;4.83;89.08
74790;BME280;63318;52.406;13.416;2023-11-21T08:06:49;100992.97;;;4.83;89.05
74790;BME280;63318;52.406;13.416;2023-11-21T08:09:19;100998.27;;;4.82;89.01
74790;BME280;63318;52.406;13.416;2023-11-21T08:11:47;101006.41;;;4.80;89.05
74790;BME280;63318;52.406;13.416;2023-11-21T08:14:16;101008.87;;;4.80;88.91
74790;BME280;63318;52.406;13.416;2023-11-21T08:16:44;101010.47;;;4.77;88.86
74790;BME280;63318;52.406;13.416;2023-11-21T08:19:13;101012.69;;;4.76;88.80
74790;BME280;63318;52.406;13.416;2023-11-21T08:21:41;101019.77;;;4.75;88.73
74790;BME280;63318;52.406;13.416;2023-11-21T08:24:10;101021.92;;;4.74;88.49
74790;BME280;63318;52.406;13.416;2023-11-21T08:26:38;101026.08;;;4.75;88.67
74790;BME280;63318;52.406;13.416;2023-11-21T08:29:06;101026.84;;;4.75;88.53
74790;BME280;63318;52.406;13.416;2023-11-21T08:31:35;101026.13;;;4.75;88.57
74790;BME280;63318;52.406;13.416;2023-11-21T08:34:03;101025.11;;;4.75;88.25
74790;BME280;63318;52.406;13.416;2023-11-21T08:36:31;101026.03;;;4.75;88.31
74790;BME280;63318;52.406;13.416;2023-11-21T08:39:00;101029.67;;;4.74;88.26
74790;BME280;63318;52.406;13.416;2023-11-21T08:41:28;101029.27;;;4.73;88.03
74790;BME280;63318;52.406;13.416;2023-11-21T08:43:56;101031.98;;;4.73;88.16
74790;BME280;63318;52.406;13.416;2023-11-21T08:46:25;101032.19;;;4.73;88.24
74790;BME280;63318;52.406;13.416;2023-11-21T08:48:53;101038.65;;;4.72;87.99
74790;BME280;63318;52.406;13.416;2023-11-21T08:51:22;101042.16;;;4.72;87.91
74790;BME280;63318;52.406;13.416;2023-11-21T08:53:50;101044.55;;;4.71;87.86
74790;BME280;63318;52.406;13.416;2023-11-21T08:56:19;101045.91;;;4.70;87.98
74790;BME280;63318;52.406;13.416;2023-11-21T08:58:47;101046.90;;;4.68;87.74
74790;BME280;63318;52.406;13.416;2023-11-21T09:01:15;101051.77;;;4.68;87.71
74790;BME280;63318;52.406;13.416;2023-11-21T09:03:44;101054.09;;;4.68;87.62
74790;BME280;63318;52.406;13.416;2023-11-21T09:06:13;101054.98;;;4.67;87.48
74790;BME280;63318;52.406;13.416;2023-11-21T09:08:41;101058.33;;;4.68;87.51
74790;BME280;63318;52.406;13.416;2023-11-21T09:11:10;101065.86;;;4.68;87.44
74790;BME280;63318;52.406;13.416;2023-11-21T09:13:38;101073.40;;;4.69;87.49
74790;BME280;63318;52.406;13.416;2023-11-21T09:16:08;101076.41;;;4.71;87.53
74790;BME280;63318;52.406;13.416;2023-11-21T09:18:37;101081.34;;;4.73;87.75
74790;BME280;63318;52.406;13.416;2023-11-21T09:21:07;101088.85;;;4.76;87.68
74790;BME280;63318;52.406;13.416;2023-11-21T09:23:35;101092.57;;;4.77;87.51
74790;BME280;63318;52.406;13.416;2023-11-21T09:26:04;101095.86;;;4.78;87.62
74790;BME280;63318;52.406;13.416;2023-11-21T09:28:33;101102.17;;;4.78;87.58
74790;BME280;63318;52.406;13.416;2023-11-21T09:31:01;101104.90;;;4.75;87.26
74790;BME280;63318;52.406;13.416;2023-11-21T09:33:30;101107.13;;;4.73;87.14
74790;BME280;63318;52.406;13.416;2023-11-21T09:35:59;101106.96;;;4.71;87.25
74790;BME280;63318;52.406;13.416;2023-11-21T09:38:28;101112.88;;;4.70;87.28
74790;BME280;63318;52.406;13.416;2023-11-21T09:40:57;101116.57;;;4.69;87.37
74790;BME280;63318;52.406;13.416;2023-11-21T09:43:28;101120.32;;;4.67;87.37
74790;BME280;63318;52.406;13.416;2023-11-21T09:46:01;101120.84;;;4.66;87.34
74790;BME280;63318;52.406;13.416;2023-11-21T09:48:31;101122.52;;;4.64;87.23
74790;BME280;63318;52.406;13.416;2023-11-21T09:51:01;101126.20;;;4.62;87.31
74790;BME280;63318;52.406;13.416;2023-11-21T09:53:34;101126.50;;;4.61;87.35
74790;BME280;63318;52.406;13.416;2023-11-21T09:56:02;101126.21;;;4.61;87.33
74790;BME280;63318;52.406;13.416;2023-11-21T09:58:31;101127.02;;;4.60;87.41
74790;BME280;63318;52.406;13.416;2023-11-21T10:01:01;101130.89;;;4.59;86.96
74790;BME280;63318;52.406;13.416;2023-11-21T10:03:30;101137.17;;;4.57;87.00
74790;BME280;63318;52.406;13.416;2023-11-21T10:05:58;101140.71;;;4.58;87.03
74790;BME280;63318;52.406;13.416;2023-11-21T10:08:27;101143.67;;;4.59;86.94
74790;BME280;63318;52.406;13.416;2023-11-21T10:10:57;101139.82;;;4.63;87.00
74790;BME280;63318;52.406;13.416;2023-11-21T10:13:28;101138.39;;;4.66;87.08
74790;BME280;63318;52.406;13.416;2023-11-21T10:15:59;101138.40;;;4.70;87.12
74790;BME280;63318;52.406;13.416;2023-11-21T10:18:28;101139.80;;;4.73;87.13
74790;BME280;63318;52.406;13.416;2023-11-21T10:20:58;101138.27;;;4.76;86.92
74790;BME280;63318;52.406;13.416;2023-11-21T10:23:27;101139.33;;;4.74;86.70
74790;BME280;63318;52.406;13.416;2023-11-21T10:25:56;101138.56;;;4.75;86.73
74790;BME280;63318;52.406;13.416;2023-11-21T10:28:26;101143.46;;;4.76;86.71
74790;BME280;63318;52.406;13.416;2023-11-21T10:30:54;101139.34;;;4.78;86.44
74790;BME280;63318;52.406;13.416;2023-11-21T10:33:29;101144.77;;;4.80;86.82
74790;BME280;63318;52.406;13.416;2023-11-21T10:35:58;101150.60;;;4.79;86.69
74790;BME280;63318;52.406;13.416;2023-11-21T10:38:28;101154.84;;;4.77;86.53
74790;BME280;63318;52.406;13.416;2023-11-21T10:40:56;101156.41;;;4.77;86.56
74790;BME280;63318;52.406;13.416;2023-11-21T10:43:27;101154.87;;;4.75;86.26
74790;BME280;63318;52.406;13.416;2023-11-21T10:45:58;101157.21;;;4.73;86.60
74790;BME280;63318;52.406;13.416;2023-11-21T10:48:27;101160.59;;;4.70;86.62
74790;BME280;63318;52.406;13.416;2023-11-21T10:50:56;101163.27;;;4.68;86.71
74790;BME280;63318;52.406;13.416;2023-11-21T10:53:30;101166.38;;;4.67;86.61
74790;BME280;63318;52.406;13.416;2023-11-21T10:56:08;101169.42;;;4.66;86.62
74790;BME280;63318;52.406;13.416;2023-11-21T10:58:37;101167.30;;;4.65;86.67
74790;BME280;63318;52.406;13.416;2023-11-21T11:01:08;101171.28;;;4.66;86.48
74790;BME280;63318;52.406;13.416;2023-11-21T11:03:37;101167.19;;;4.65;86.48
74790;BME280;63318;52.406;13.416;2023-11-21T11:06:08;101170.27;;;4.64;86.52
74790;BME280;63318;52.406;13.416;2023-11-21T11:08:38;101172.06;;;4.63;86.46
74790;BME280;63318;52.406;13.416;2023-11-21T11:11:07;101172.98;;;4.61;86.47
74790;BME280;63318;52.406;13.416;2023-11-21T11:13:37;101175.16;;;4.60;86.30
74790;BME280;63318;52.406;13.416;2023-11-21T11:16:07;101180.33;;;4.59;86.58
74790;BME280;63318;52.406;13.416;2023-11-21T11:18:38;101177.58;;;4.60;86.56
74790;BME280;63318;52.406;13.416;2023-11-21T11:21:16;101177.31;;;4.60;86.51
74790;BME280;63318;52.406;13.416;2023-11-21T11:24:04;101180.95;;;4.60;86.61
74790;BME280;63318;52.406;13.416;2023-11-21T11:26:41;101187.39;;;4.60;86.47
74790;BME280;63318;52.406;13.416;2023-11-21T11:29:21;101186.39;;;4.62;86.47
74790;BME280;63318;52.406;13.416;2023-11-21T11:31:59;101190.05;;;4.64;86.42
74790;BME280;63318;52.406;13.416;2023-11-21T11:34:34;101196.09;;;4.66;86.73
74790;BME280;63318;52.406;13.416;2023-11-21T11:37:06;101203.92;;;4.66;86.65
74790;BME280;63318;52.406;13.416;2023-11-21T11:39:41;101208.20;;;4.66;86.69
74790;BME280;63318;52.406;13.416;2023-11-21T11:42:14;101213.85;;;4.64;86.57
74790;BME280;63318;52.406;13.416;2023-11-21T11:44:53;101212.52;;;4.65;86.67
74790;BME280;63318;52.406;13.416;2023-11-21T11:47:27;101216.02;;;4.64;86.64
74790;BME280;63318;52.406;13.416;2023-11-21T11:50:07;101221.85;;;4.64;86.65
74790;BME280;63318;52.406;13.416;2023-11-21T11:52:38;101230.06;;;4.63;86.46
74790;BME280;63318;52.406;13.416;2023-11-21T11:55:12;101232.11;;;4.60;86.45
74790;BME280;63318;52.406;13.416;2023-11-21T11:57:45;101233.95;;;4.57;86.45
74790;BME280;63318;52.406;13.416;2023-11-21T12:00:16;101241.09;;;4.54;86.23
74790;BME280;63318;52.406;13.416;2023-11-21T12:02:46;101240.75;;;4.52;86.51
74790;BME280;63318;52.406;13.416;2023-11-21T12:05:15;101245.14;;;4.50;86.54
74790;BME280;63318;52.406;13.416;2023-11-21T12:07:52;101252.59;;;4.49;86.69
74790;BME280;63318;52.406;13.416;2023-11-21T12:10:23;101255.95;;;4.48;86.61
74790;BME280;63318;52.406;13.416;2023-11-21T12:12:52;101262.56;;;4.47;86.80
74790;BME280;63318;52.406;13.416;2023-11-21T12:15:25;101267.27;;;4.46;86.74
74790;BME280;63318;52.406;13.416;2023-11-21T12:17:54;101271.08;;;4.45;86.97
74790;BME280;63318;52.406;13.416;2023-11-21T12:20:24;101272.95;;;4.43;86.85
74790;BME280;63318;52.406;13.416;2023-11-21T12:22:54;101278.84;;;4.42;86.80
74790;BME280;63318;52.406;13.416;2023-11-21T12:25:24;101276.48;;;4.39;86.76
74790;BME280;63318;52.406;13.416;2023-11-21T12:27:53;101282.82;;;4.36;86.72
74790;BME280;63318;52.406;13.416;2023-11-21T12:30:24;101282.48;;;4.34;86.63
74790;BME280;63318;52.406;13.416;2023-11-21T12:32:54;101287.98;;;4.32;86.70
74790;BME280;63318;52.406;13.416;2023-11-21T12:35:25;101291.95;;;4.30;86.63
74790;BME280;63318;52.406;13.416;2023-11-21T12:37:55;101297.98;;;4.29;86.56
74790;BME280;63318;52.406;13.416;2023-11-21T12:40:24;101299.09;;;4.29;86.40
74790;BME280;63318;52.406;13.416;2023-11-21T12:42:55;101304.52;;;4.28;86.33
74790;BME280;63318;52.406;13.416;2023-11-21T12:45:24;101303.83;;;4.28;86.53
74790;BME280;63318;52.406;13.416;2023-11-21T12:47:55;101306.63;;;4.27;86.31
74790;BME280;63318;52.406;13.416;2023-11-21T12:50:25;101307.77;;;4.27;86.41
74790;BME280;63318;52.406;13.416;2023-11-21T12:52:58;101307.70;;;4.26;86.54
74790;BME280;63318;52.406;13.416;2023-11-21T12:55:29;101311.13;;;4.24;86.27
74790;BME280;63318;52.406;13.416;2023-11-21T12:58:00;101306.54;;;4.21;86.39
74790;BME280;63318;52.406;13.416;2023-11-21T13:00:33;101307.16;;;4.20;86.57